Time;durP1;ratioP1;P1;durP2;ratioP2;P2;SDS_P1;SDS_P2;PMS_P1;PMS_P2;Temp;Humidity;BMP_temperature;BMP_pressure;BME280_temperature;BME280_humidity;BME280_pressure;Samples;Min_cycle;Max_cycle;Signal;HPM_P1;HPM_P2
2021/03/27 00:02:17;;;;;;;10.57;7.22;;;8.00;83.80;;;;;;5073097;28;20059;-77
2021/03/27 00:04:57;;;;;;;6.88;5.50;;;8.00;84.00;;;;;;5057222;28;20045;-77
2021/03/27 00:07:46;;;;;;;6.32;5.60;;;7.90;83.90;;;;;;5066413;28;20037;-77
2021/03/27 00:10:25;;;;;;;5.15;4.68;;;7.90;83.60;;;;;;5063099;28;20044;-77
2021/03/27 00:12:58;;;;;;;4.75;4.25;;;7.90;83.50;;;;;;5073840;28;20028;-77
2021/03/27 00:15:29;;;;;;;5.47;4.97;;;7.80;83.60;;;;;;5056261;28;20017;-77
2021/03/27 00:18:10;;;;;;;6.90;4.85;;;7.90;83.70;;;;;;5052376;28;20497;-77
2021/03/27 00:20:42;;;;;;;6.95;4.85;;;7.90;83.20;;;;;;5058944;28;20378;-76
2021/03/27 00:23:16;;;;;;;4.57;4.18;;;7.90;83.20;;;;;;5053886;28;20024;-76
2021/03/27 00:25:51;;;;;;;7.93;4.28;;;8.00;83.50;;;;;;5060855;28;20029;-76
2021/03/27 00:28:39;;;;;;;7.70;5.00;;;8.00;83.40;;;;;;5037709;28;20072;-76
2021/03/27 00:31:12;;;;;;;5.55;3.67;;;8.00;83.70;;;;;;5070851;28;20388;-76
2021/03/27 00:33:46;;;;;;;3.85;3.25;;;8.10;83.70;;;;;;5053666;28;20069;-76
2021/03/27 00:36:16;;;;;;;5.68;3.08;;;8.20;83.50;;;;;;5070303;28;20029;-76
2021/03/27 00:38:47;;;;;;;5.28;2.72;;;8.20;83.30;;;;;;5073618;28;20028;-76
2021/03/27 00:41:18;;;;;;;3.60;2.13;;;8.20;83.30;;;;;;5072803;28;20028;-76
2021/03/27 00:43:52;;;;;;;4.13;2.55;;;8.20;83.20;;;;;;5071883;28;20056;-76
2021/03/27 00:46:19;;;;;;;4.60;2.17;;;8.20;83.10;;;;;;5072633;28;20140;-76
2021/03/27 00:49:11;;;;;;;2.70;1.77;;;8.20;83.00;;;;;;5071962;28;20024;-76
2021/03/27 00:52:01;;;;;;;2.10;1.75;;;8.20;83.10;;;;;;5060892;28;20509;-76
2021/03/27 00:54:31;;;;;;;3.53;1.80;;;8.20;83.20;;;;;;5072594;28;20027;-76
2021/03/27 00:57:06;;;;;;;4.55;1.73;;;8.20;83.20;;;;;;5072915;28;20031;-76
2021/03/27 00:59:42;;;;;;;6.00;1.70;;;8.20;83.20;;;;;;5071314;28;20435;-76
2021/03/27 01:02:24;;;;;;;4.60;1.25;;;8.20;83.30;;;;;;5072841;28;20044;-75
2021/03/27 01:04:51;;;;;;;3.63;1.35;;;8.20;83.40;;;;;;5023328;28;20028;-76
2021/03/27 01:07:18;;;;;;;2.10;1.05;;;8.20;83.40;;;;;;5071665;28;20116;-76
2021/03/27 01:09:56;;;;;;;5.65;1.63;;;8.20;83.40;;;;;;5072933;28;20021;-76
2021/03/27 01:12:35;;;;;;;6.90;1.10;;;8.20;83.40;;;;;;5073071;28;20056;-76
2021/03/27 01:15:15;;;;;;;3.47;1.17;;;8.10;83.70;;;;;;5072543;28;20070;-76
2021/03/27 01:17:46;;;;;;;3.63;1.50;;;8.10;83.80;;;;;;5073170;28;20082;-76
2021/03/27 01:20:21;;;;;;;4.90;1.42;;;8.10;83.90;;;;;;5072756;28;20037;-76
2021/03/27 01:22:49;;;;;;;7.15;1.35;;;8.10;84.10;;;;;;5072977;28;20082;-76
2021/03/27 01:25:20;;;;;;;3.78;1.08;;;8.00;84.10;;;;;;5072645;28;20025;-76
2021/03/27 01:28:20;;;;;;;4.10;0.80;;;8.00;84.40;;;;;;5072606;28;20119;-76
2021/03/27 01:31:28;;;;;;;3.28;1.00;;;8.00;84.50;;;;;;5093546;28;20128;-76
2021/03/27 01:33:54;;;;;;;11.38;1.40;;;8.00;84.60;;;;;;5038823;28;20064;-75
2021/03/27 01:36:31;;;;;;;3.78;1.30;;;8.00;84.60;;;;;;5072213;28;20071;-75
2021/03/27 01:39:09;;;;;;;1.25;0.82;;;8.00;84.60;;;;;;5072129;28;20090;-76
2021/03/27 01:41:55;;;;;;;7.70;1.50;;;8.00;84.40;;;;;;5072374;28;20103;-76
2021/03/27 01:44:42;;;;;;;3.08;0.90;;;8.00;84.40;;;;;;5072580;28;20156;-76
2021/03/27 01:47:36;;;;;;;5.82;1.35;;;8.00;84.40;;;;;;5064964;28;20041;-76
2021/03/27 01:50:39;;;;;;;3.67;1.42;;;8.00;84.20;;;;;;5074248;28;20098;-76
2021/03/27 01:53:17;;;;;;;6.85;1.50;;;8.10;84.10;;;;;;5035081;28;20448;-76
2021/03/27 01:55:58;;;;;;;4.50;1.60;;;8.00;84.00;;;;;;5076480;28;20074;-76
2021/03/27 01:58:37;;;;;;;5.38;1.20;;;7.90;84.10;;;;;;5076255;28;20050;-76
2021/03/27 02:01:11;;;;;;;6.35;1.35;;;7.90;84.10;;;;;;5076362;28;20115;-76
2021/03/27 02:03:49;;;;;;;4.25;1.30;;;7.90;84.00;;;;;;5075590;28;20024;-76
2021/03/27 02:06:39;;;;;;;2.50;1.00;;;7.90;84.00;;;;;;5091175;28;20040;-76
2021/03/27 02:09:44;;;;;;;5.25;1.70;;;7.90;84.10;;;;;;5056354;28;20033;-76
2021/03/27 02:12:46;;;;;;;5.35;1.60;;;7.90;84.20;;;;;;5071227;28;20032;-76
2021/03/27 02:15:36;;;;;;;4.93;1.50;;;7.80;84.90;;;;;;5074962;28;20021;-76
2021/03/27 02:18:13;;;;;;;5.00;1.85;;;7.80;84.90;;;;;;5067561;28;20036;-76
2021/03/27 02:21:12;;;;;;;5.93;1.50;;;7.80;84.20;;;;;;5076047;28;20024;-76
2021/03/27 02:24:12;;;;;;;6.65;1.65;;;7.80;84.30;;;;;;5067706;28;20086;-76
2021/03/27 02:27:15;;;;;;;8.70;2.10;;;7.90;84.20;;;;;;5105233;28;20032;-76
2021/03/27 02:29:44;;;;;;;5.53;1.75;;;7.90;84.20;;;;;;5051936;28;20501;-76
2021/03/27 02:32:21;;;;;;;7.35;1.52;;;7.80;84.10;;;;;;5075790;28;20107;-76
2021/03/27 02:35:10;;;;;;;10.32;2.65;;;7.90;84.10;;;;;;5075936;28;20365;-76
2021/03/27 02:37:41;;;;;;;6.63;1.65;;;7.90;84.10;;;;;;5074500;28;20077;-76
2021/03/27 02:40:20;;;;;;;7.80;1.92;;;7.90;83.90;;;;;;5074580;28;20119;-76
2021/03/27 02:42:49;;;;;;;5.28;1.90;;;7.90;83.70;;;;;;5075340;28;20115;-76
2021/03/27 02:45:26;;;;;;;8.95;1.70;;;7.90;83.70;;;;;;5074328;28;20393;-76
2021/03/27 02:47:58;;;;;;;8.05;1.85;;;7.90;83.80;;;;;;5075233;28;20028;-76
2021/03/27 02:50:54;;;;;;;9.25;2.42;;;7.90;83.80;;;;;;5074419;28;20111;-76
2021/03/27 02:53:27;;;;;;;8.38;1.85;;;7.90;83.70;;;;;;5075422;28;20042;-76
2021/03/27 02:56:10;;;;;;;6.93;2.10;;;7.90;83.30;;;;;;5075443;28;20013;-76
2021/03/27 02:59:13;;;;;;;6.30;2.17;;;7.80;83.40;;;;;;5072415;28;20516;-76
2021/03/27 03:01:49;;;;;;;7.68;1.70;;;7.80;83.40;;;;;;5055126;28;20075;-76
2021/03/27 03:04:18;;;;;;;8.85;1.90;;;7.70;83.30;;;;;;5072484;28;20451;-76
2021/03/27 03:06:54;;;;;;;8.52;1.88;;;7.70;83.30;;;;;;5075127;28;20614;-76
2021/03/27 03:09:26;;;;;;;7.18;1.73;;;7.70;83.30;;;;;;5075251;28;20126;-76
2021/03/27 03:12:14;;;;;;;7.78;2.28;;;7.70;83.40;;;;;;5056580;28;20036;-76
2021/03/27 03:14:58;;;;;;;7.85;2.00;;;7.70;83.50;;;;;;5074852;28;20031;-76
2021/03/27 03:17:40;;;;;;;12.02;1.90;;;7.70;83.50;;;;;;5074533;28;20020;-76
2021/03/27 03:20:22;;;;;;;7.35;1.80;;;7.70;83.60;;;;;;5074185;28;20448;-76
2021/03/27 03:22:56;;;;;;;5.97;1.65;;;7.70;83.50;;;;;;5074023;28;20056;-76
2021/03/27 03:25:28;;;;;;;10.75;2.80;;;7.60;83.40;;;;;;5074238;28;20054;-76
2021/03/27 03:28:19;;;;;;;9.57;2.22;;;7.60;83.50;;;;;;5074342;28;20056;-76
2021/03/27 03:31:06;;;;;;;10.98;2.10;;;7.60;83.50;;;;;;5052283;28;20559;-76
2021/03/27 03:33:46;;;;;;;8.45;2.00;;;7.60;83.50;;;;;;5053945;28;20370;-76
2021/03/27 03:36:41;;;;;;;8.75;2.42;;;7.60;83.60;;;;;;5054744;28;20021;-76
2021/03/27 03:39:32;;;;;;;6.97;1.80;;;7.50;83.60;;;;;;5054738;28;20104;-76
2021/03/27 03:42:19;;;;;;;7.57;2.53;;;7.50;83.70;;;;;;4998779;28;20061;-76
2021/03/27 03:45:07;;;;;;;9.02;1.98;;;7.50;83.70;;;;;;5040297;28;20041;-76
2021/03/27 03:48:09;;;;;;;5.63;2.40;;;7.40;83.70;;;;;;5054285;28;20116;-76
2021/03/27 03:50:52;;;;;;;9.70;2.10;;;7.40;83.70;;;;;;5053980;28;20067;-76
2021/03/27 03:53:40;;;;;;;11.82;2.30;;;7.30;83.60;;;;;;5054213;28;20025;-76
2021/03/27 03:56:21;;;;;;;8.73;1.75;;;7.30;83.70;;;;;;5052978;28;20082;-76
2021/03/27 03:59:00;;;;;;;6.93;2.00;;;7.30;83.70;;;;;;5054733;28;20037;-76
2021/03/27 04:01:25;;;;;;;11.30;2.40;;;7.20;83.80;;;;;;5053984;28;20028;-76
2021/03/27 04:04:10;;;;;;;7.07;1.67;;;7.20;83.80;;;;;;5054203;28;20108;-76
2021/03/27 04:06:39;;;;;;;8.90;2.10;;;7.20;83.90;;;;;;5054127;28;20029;-76
2021/03/27 04:09:25;;;;;;;10.77;2.05;;;7.10;83.90;;;;;;5053019;28;20396;-76
2021/03/27 04:12:17;;;;;;;9.18;1.88;;;7.10;84.70;;;;;;5032223;28;20033;-76
2021/03/27 04:15:17;;;;;;;10.50;1.77;;;7.10;84.10;;;;;;5036650;28;20439;-76
2021/03/27 04:17:53;;;;;;;9.63;1.90;;;7.10;84.00;;;;;;5053931;28;20029;-76
2021/03/27 04:20:21;;;;;;;13.35;2.13;;;7.10;83.90;;;;;;5052523;28;20074;-76
2021/03/27 04:23:00;;;;;;;5.50;1.70;;;7.10;83.90;;;;;;5053915;28;20025;-76
2021/03/27 04:25:42;;;;;;;7.55;1.83;;;7.10;83.90;;;;;;5051998;28;20154;-76
2021/03/27 04:28:19;;;;;;;11.95;2.20;;;7.10;83.90;;;;;;5051977;28;20040;-76
2021/03/27 04:31:15;;;;;;;6.75;1.88;;;7.10;83.80;;;;;;5093408;28;20082;-76
2021/03/27 04:34:12;;;;;;;7.15;1.70;;;7.20;83.80;;;;;;5093744;28;20035;-76
2021/03/27 04:36:48;;;;;;;9.65;1.88;;;7.10;83.70;;;;;;5074538;28;20020;-76
2021/03/27 04:39:25;;;;;;;18.38;2.53;;;7.20;83.50;;;;;;5075181;28;20414;-76
2021/03/27 04:42:00;;;;;;;9.43;2.20;;;7.20;83.70;;;;;;5093767;28;20028;-76
2021/03/27 04:44:42;;;;;;;12.27;2.10;;;7.20;83.60;;;;;;5093812;28;20020;-76
2021/03/27 04:47:15;;;;;;;12.48;3.15;;;7.20;83.60;;;;;;5107062;28;20492;-76
2021/03/27 04:49:53;;;;;;;9.32;1.98;;;7.20;83.70;;;;;;5093575;28;20111;-76
2021/03/27 04:52:25;;;;;;;11.25;2.03;;;7.20;83.60;;;;;;5093449;28;20099;-76
2021/03/27 04:55:12;;;;;;;11.60;2.40;;;7.20;83.50;;;;;;5075508;28;20024;-76
2021/03/27 04:57:50;;;;;;;15.15;2.20;;;7.20;83.50;;;;;;5093371;28;20034;-76
2021/03/27 05:00:37;;;;;;;12.30;2.55;;;7.30;83.40;;;;;;5074623;28;20036;-76
2021/03/27 05:03:03;;;;;;;10.65;2.13;;;7.20;83.40;;;;;;5092005;28;20114;-76
2021/03/27 05:05:42;;;;;;;11.85;2.53;;;7.20;83.30;;;;;;5074912;28;20115;-76
2021/03/27 05:08:12;;;;;;;;;;;7.30;83.90;;;;;;5074984;28;20036;-76
2021/03/27 05:10:53;;;;;;;7.95;1.95;;;7.30;83.10;;;;;;5092972;28;20340;-76
2021/03/27 05:13:43;;;;;;;7.95;1.75;;;7.20;83.30;;;;;;5093240;28;20503;-76
2021/03/27 05:16:15;;;;;;;9.82;2.15;;;7.30;83.20;;;;;;5093144;28;20020;-76
2021/03/27 05:19:15;;;;;;;11.25;2.22;;;7.30;83.10;;;;;;5074861;28;20385;-76
2021/03/27 05:21:58;;;;;;;13.90;2.20;;;7.40;83.00;;;;;;5066462;28;20060;-76
2021/03/27 05:25:05;;;;;;;12.45;2.20;;;7.40;82.80;;;;;;5092646;28;20145;-76
2021/03/27 05:27:31;;;;;;;9.18;2.22;;;7.40;82.70;;;;;;5075184;28;20477;-76
2021/03/27 05:30:26;;;;;;;11.77;2.55;;;7.40;82.60;;;;;;5092950;28;20063;-76
2021/03/27 05:33:20;;;;;;;14.38;2.50;;;7.40;82.60;;;;;;5090229;28;20024;-76
2021/03/27 05:36:14;;;;;;;11.15;2.20;;;7.40;82.60;;;;;;5088672;28;20024;-76
2021/03/27 05:38:53;;;;;;;12.95;2.60;;;7.40;82.60;;;;;;5077566;28;20024;-76
2021/03/27 05:41:57;;;;;;;12.50;2.63;;;7.40;82.70;;;;;;5087290;28;20579;-76
2021/03/27 05:44:41;;;;;;;11.55;2.30;;;7.30;82.80;;;;;;5091679;28;20530;-76
2021/03/27 05:47:59;;;;;;;9.77;2.10;;;7.40;82.80;;;;;;5072242;28;20046;-76
2021/03/27 05:51:06;;;;;;;15.20;2.38;;;7.40;82.80;;;;;;4990603;28;20105;-76
2021/03/27 05:54:18;;;;;;;11.25;2.45;;;7.50;83.00;;;;;;4933422;29;20071;-76
2021/03/27 05:56:52;;;;;;;16.63;2.47;;;7.50;83.10;;;;;;5004346;28;20495;-76
2021/03/27 05:59:55;;;;;;;16.65;2.78;;;7.40;83.30;;;;;;5089429;28;20028;-76
2021/03/27 06:02:52;;;;;;;11.77;2.30;;;7.40;83.50;;;;;;5085620;28;20558;-75
2021/03/27 06:05:24;;;;;;;14.88;2.45;;;7.50;83.90;;;;;;5091733;28;20033;-76
2021/03/27 06:08:22;;;;;;;9.70;2.42;;;7.50;84.10;;;;;;5074615;28;20088;-76
2021/03/27 06:11:18;;;;;;;7.50;2.28;;;7.50;84.60;;;;;;5092674;28;20104;-76
2021/03/27 06:14:11;;;;;;;16.10;3.05;;;7.50;85.00;;;;;;5054576;28;20031;-76
2021/03/27 06:16:56;;;;;;;13.90;2.70;;;7.40;85.00;;;;;;5091811;28;20028;-76
2021/03/27 06:19:37;;;;;;;16.48;2.65;;;7.40;85.30;;;;;;5092678;28;20103;-76
2021/03/27 06:22:05;;;;;;;14.85;3.08;;;7.40;85.40;;;;;;5087793;28;20487;-75
2021/03/27 06:25:04;;;;;;;13.53;3.17;;;7.40;85.50;;;;;;5092545;28;20020;-76
2021/03/27 06:27:51;;;;;;;12.20;2.78;;;7.40;85.50;;;;;;5092591;28;20108;-76
2021/03/27 06:30:32;;;;;;;8.73;2.45;;;7.30;85.30;;;;;;5073860;28;20044;-76
2021/03/27 06:33:00;;;;;;;11.75;2.97;;;7.30;85.40;;;;;;5092227;28;20020;-76
2021/03/27 06:36:00;;;;;;;14.70;2.63;;;7.30;85.50;;;;;;5076129;28;20024;-76
2021/03/27 06:38:56;;;;;;;12.93;2.20;;;7.30;85.60;;;;;;5077772;28;20452;-76
2021/03/27 06:41:44;;;;;;;9.82;1.80;;;7.30;85.10;;;;;;5095861;28;20027;-76
2021/03/27 06:44:28;;;;;;;13.38;2.30;;;7.20;83.80;;;;;;5077630;28;20035;-76
2021/03/27 06:47:32;;;;;;;8.32;1.50;;;7.20;83.70;;;;;;5095916;28;20380;-75
2021/03/27 06:50:21;;;;;;;5.47;1.42;;;7.10;83.70;;;;;;4993843;28;20037;-75
2021/03/27 06:53:12;;;;;;;8.75;1.60;;;7.10;83.80;;;;;;4977765;28;20134;-75
2021/03/27 06:56:15;;;;;;;8.38;1.70;;;7.10;83.90;;;;;;5073653;28;20442;-75
2021/03/27 06:58:55;;;;;;;14.82;2.38;;;7.10;83.90;;;;;;5095602;28;20032;-76
2021/03/27 07:01:36;;;;;;;9.70;2.00;;;7.10;83.70;;;;;;5077678;28;20063;-76
2021/03/27 07:04:41;;;;;;;11.40;2.35;;;7.20;83.60;;;;;;5077294;28;20027;-76
2021/03/27 07:07:25;;;;;;;11.07;2.03;;;7.30;83.50;;;;;;5095027;28;20031;-76
2021/03/27 07:10:09;;;;;;;12.30;1.95;;;7.30;83.20;;;;;;5087067;28;20470;-76
2021/03/27 07:13:00;;;;;;;10.18;1.90;;;7.40;83.20;;;;;;5078241;28;20070;-76
2021/03/27 07:15:46;;;;;;;13.65;2.53;;;7.50;83.20;;;;;;5075087;28;20021;-76
2021/03/27 07:18:50;;;;;;;9.55;1.83;;;7.50;82.90;;;;;;5085617;28;20016;-76
2021/03/27 07:21:40;;;;;;;12.43;2.42;;;7.70;82.60;;;;;;5091712;28;20070;-76
2021/03/27 07:24:43;;;;;;;7.93;1.58;;;7.70;82.40;;;;;;5086860;28;20082;-76
2021/03/27 07:27:58;;;;;;;9.07;1.67;;;7.70;82.20;;;;;;5092986;28;20421;-76
2021/03/27 07:30:53;;;;;;;7.07;1.58;;;7.70;81.90;;;;;;5064728;28;20072;-76
2021/03/27 07:33:31;;;;;;;8.10;1.50;;;7.70;81.80;;;;;;5048909;28;20120;-76
2021/03/27 07:36:17;;;;;;;8.38;1.70;;;7.80;80.60;;;;;;5075179;28;20021;-76
2021/03/27 07:39:07;;;;;;;5.45;1.20;;;7.90;80.50;;;;;;5074553;28;20032;-76
2021/03/27 07:41:47;;;;;;;8.75;1.70;;;8.00;80.20;;;;;;5067768;28;20056;-76
2021/03/27 07:44:51;;;;;;;14.55;1.95;;;8.20;79.70;;;;;;5069981;28;20077;-76
2021/03/27 07:47:23;;;;;;;7.55;1.85;;;8.30;78.80;;;;;;4994507;28;20548;-76
2021/03/27 07:50:07;;;;;;;7.35;1.60;;;8.30;78.70;;;;;;5049158;28;20093;-76
2021/03/27 07:52:45;;;;;;;8.60;1.92;;;8.30;78.10;;;;;;5072495;28;20047;-76
2021/03/27 07:56:05;;;;;;;9.93;2.03;;;8.20;78.20;;;;;;5068549;28;20108;-76
2021/03/27 07:59:08;;;;;;;12.02;2.30;;;8.30;77.00;;;;;;4996427;28;20607;-76
2021/03/27 08:01:52;;;;;;;11.65;2.63;;;8.30;76.80;;;;;;5069812;28;20103;-76
2021/03/27 08:04:17;;;;;;;10.77;2.70;;;8.40;76.50;;;;;;5047525;28;20032;-76
2021/03/27 08:07:07;;;;;;;13.18;2.53;;;8.60;76.80;;;;;;5062914;28;20583;-76
2021/03/27 08:10:11;;;;;;;10.38;2.30;;;9.00;75.80;;;;;;5062180;28;20060;-76
2021/03/27 08:12:48;;;;;;;6.70;1.40;;;9.20;75.50;;;;;;5067021;28;20139;-77
2021/03/27 08:15:37;;;;;;;12.27;2.00;;;9.30;74.90;;;;;;5064350;28;20021;-76
2021/03/27 08:18:44;;;;;;;18.35;2.88;;;9.30;74.30;;;;;;5056323;28;20024;-76
2021/03/27 08:21:29;;;;;;;14.35;2.22;;;9.30;73.20;;;;;;5041338;28;20044;-76
2021/03/27 08:24:23;;;;;;;8.50;1.88;;;9.40;73.30;;;;;;5062162;28;20059;-76
2021/03/27 08:27:13;;;;;;;12.43;2.20;;;9.30;72.00;;;;;;5057564;28;20127;-76
2021/03/27 08:29:44;;;;;;;12.68;2.03;;;9.30;72.20;;;;;;5057998;28;20052;-76
2021/03/27 08:32:22;;;;;;;9.57;2.30;;;9.20;72.20;;;;;;5060357;28;20409;-76
2021/03/27 08:35:12;;;;;;;26.83;2.80;;;9.10;72.20;;;;;;5055687;28;20025;-77
2021/03/27 08:38:00;;;;;;;14.68;2.28;;;9.10;71.40;;;;;;5054483;28;20386;-76
2021/03/27 08:40:53;;;;;;;9.32;2.17;;;9.00;71.40;;;;;;5055610;28;20025;-76
2021/03/27 08:43:47;;;;;;;11.80;2.15;;;9.10;71.50;;;;;;5067693;28;20029;-76
2021/03/27 08:46:32;;;;;;;16.02;2.40;;;9.20;71.50;;;;;;5059693;28;20358;-76
2021/03/27 08:49:19;;;;;;;10.93;1.98;;;9.40;69.30;;;;;;5058975;28;20029;-76
2021/03/27 08:52:13;;;;;;;11.25;2.00;;;9.40;69.20;;;;;;5058580;28;20036;-76
2021/03/27 08:55:07;;;;;;;13.80;2.40;;;9.60;69.40;;;;;;5067213;28;20017;-76
2021/03/27 08:58:10;;;;;;;17.70;2.72;;;10.00;68.20;;;;;;5063982;28;20024;-75
2021/03/27 09:00:58;;;;;;;15.68;2.78;;;10.00;65.90;;;;;;5059329;28;20055;-76
2021/03/27 09:03:27;;;;;;;9.15;1.73;;;10.00;66.30;;;;;;5034396;28;20158;-75
2021/03/27 09:06:18;;;;;;;11.68;2.28;;;10.20;66.80;;;;;;5064133;28;20063;-75
2021/03/27 09:09:11;;;;;;;16.20;2.78;;;10.40;66.00;;;;;;5052901;28;20071;-76
2021/03/27 09:12:06;;;;;;;12.77;2.72;;;10.80;64.70;;;;;;5053082;28;20362;-76
2021/03/27 09:15:07;;;;;;;16.98;2.58;;;10.80;62.80;;;;;;5046914;28;20050;-76
2021/03/27 09:17:59;;;;;;;11.07;2.17;;;10.70;61.00;;;;;;5061776;28;20038;-76
2021/03/27 09:20:46;;;;;;;11.68;2.03;;;10.50;61.80;;;;;;5055844;28;20099;-76
2021/03/27 09:23:14;;;;;;;13.63;2.83;;;10.30;62.50;;;;;;5066661;28;20603;-76
2021/03/27 09:26:01;;;;;;;12.23;2.30;;;10.30;62.50;;;;;;5059167;28;20719;-76
2021/03/27 09:29:06;;;;;;;16.17;2.20;;;10.10;62.50;;;;;;5054719;28;20036;-76
2021/03/27 09:31:59;;;;;;;12.43;1.92;;;10.00;63.60;;;;;;5019823;28;20053;-76
2021/03/27 09:34:43;;;;;;;7.55;1.98;;;9.90;63.80;;;;;;5051285;28;20174;-75
2021/03/27 09:37:36;;;;;;;9.65;2.50;;;9.70;63.60;;;;;;5052308;28;20017;-76
2021/03/27 09:40:24;;;;;;;11.82;2.40;;;9.70;64.60;;;;;;5051317;28;20021;-76
2021/03/27 09:43:25;;;;;;;10.50;2.22;;;10.00;63.50;;;;;;5050536;28;20147;-76
2021/03/27 09:46:08;;;;;;;9.07;1.80;;;10.20;63.30;;;;;;5052438;28;20051;-76
2021/03/27 09:48:44;;;;;;;16.33;2.58;;;10.40;63.20;;;;;;5052465;28;20368;-76
2021/03/27 09:51:44;;;;;;;11.55;1.90;;;10.90;61.40;;;;;;5052670;28;20025;-76
2021/03/27 09:54:15;;;;;;;14.35;2.45;;;11.40;59.80;;;;;;5029342;28;20068;-76
2021/03/27 09:57:21;;;;;;;12.35;2.42;;;11.70;59.40;;;;;;5050996;28;20033;-76
2021/03/27 10:00:01;;;;;;;13.40;1.95;;;12.00;58.40;;;;;;5052611;28;20029;-76
2021/03/27 10:02:52;;;;;;;10.10;1.60;;;12.00;56.80;;;;;;5052774;28;20032;-76
2021/03/27 10:05:42;;;;;;;9.18;2.30;;;12.20;56.00;;;;;;5051482;28;20025;-76
2021/03/27 10:08:31;;;;;;;7.13;1.55;;;12.30;54.40;;;;;;5051165;28;20024;-76
2021/03/27 10:11:03;;;;;;;9.95;1.75;;;12.30;55.30;;;;;;5055414;28;20082;-77
2021/03/27 10:13:52;;;;;;;16.23;2.50;;;12.40;54.10;;;;;;5055314;28;20047;-78
2021/03/27 10:16:33;;;;;;;10.43;2.00;;;12.40;54.20;;;;;;5056504;28;20021;-77
2021/03/27 10:19:18;;;;;;;11.45;2.13;;;12.50;55.60;;;;;;5055038;28;20029;-77
2021/03/27 10:21:59;;;;;;;6.82;1.63;;;12.60;53.80;;;;;;5055115;28;20048;-77
2021/03/27 10:24:43;;;;;;;8.77;2.00;;;12.60;54.40;;;;;;5056073;28;20481;-78
2021/03/27 10:27:38;;;;;;;10.15;2.10;;;12.80;54.30;;;;;;5055014;28;20033;-77
2021/03/27 10:30:40;;;;;;;6.78;1.70;;;12.80;51.80;;;;;;5054956;28;20428;-78
2021/03/27 10:33:14;;;;;;;6.80;1.77;;;12.80;50.00;;;;;;4994739;28;20054;-78
2021/03/27 10:35:54;;;;;;;7.75;1.50;;;12.80;50.60;;;;;;5047268;28;20041;-78
2021/03/27 10:38:38;;;;;;;5.13;1.50;;;12.90;48.80;;;;;;5055797;28;20103;-78
2021/03/27 10:41:28;;;;;;;8.80;1.77;;;13.00;47.00;;;;;;5054622;28;20052;-77
2021/03/27 10:44:10;;;;;;;11.10;1.88;;;12.90;46.60;;;;;;5054896;28;20029;-76
2021/03/27 10:46:38;;;;;;;10.52;1.92;;;12.60;48.80;;;;;;5055386;28;20093;-76
2021/03/27 10:49:10;;;;;;;8.95;2.17;;;12.80;50.70;;;;;;5046319;28;20473;-76
2021/03/27 10:51:45;;;;;;;8.23;2.20;;;12.90;47.60;;;;;;5055439;28;20082;-76
2021/03/27 10:54:31;;;;;;;7.22;1.85;;;12.60;49.20;;;;;;5052107;28;20029;-76
2021/03/27 10:57:14;;;;;;;11.13;2.13;;;12.20;50.80;;;;;;5035737;28;20026;-76
2021/03/27 10:59:49;;;;;;;10.07;1.90;;;12.10;52.50;;;;;;5048814;28;20040;-76
2021/03/27 11:02:24;;;;;;;6.38;1.67;;;12.30;53.20;;;;;;5055557;28;20021;-74
2021/03/27 11:05:29;;;;;;;6.93;1.52;;;12.40;53.90;;;;;;5055064;28;20071;-76
2021/03/27 11:08:07;;;;;;;5.35;1.42;;;12.60;52.80;;;;;;5053245;28;20029;-76
2021/03/27 11:10:44;;;;;;;5.07;1.50;;;12.70;53.00;;;;;;5054958;28;20021;-76
2021/03/27 11:13:31;;;;;;;9.57;2.05;;;12.80;53.20;;;;;;5054904;28;20079;-76
2021/03/27 11:16:15;;;;;;;7.30;1.50;;;13.00;53.40;;;;;;5055432;28;20017;-76
2021/03/27 11:19:08;;;;;;;11.48;2.08;;;13.20;54.10;;;;;;5055130;28;20033;-75
2021/03/27 11:21:52;;;;;;;7.55;1.77;;;13.30;52.30;;;;;;5054181;28;20025;-75
2021/03/27 11:24:49;;;;;;;9.48;1.80;;;13.40;51.90;;;;;;5053711;28;20481;-75
2021/03/27 11:27:48;;;;;;;8.23;2.00;;;13.40;51.80;;;;;;5053553;28;20120;-75
2021/03/27 11:30:30;;;;;;;9.02;1.92;;;13.50;50.80;;;;;;5065925;28;20055;-75
2021/03/27 11:33:22;;;;;;;9.40;2.30;;;13.70;51.20;;;;;;5071752;28;20078;-78
2021/03/27 11:36:19;;;;;;;5.32;1.55;;;13.80;49.40;;;;;;5049566;28;20496;-75
2021/03/27 11:38:59;;;;;;;8.27;2.15;;;13.70;47.60;;;;;;5066134;28;20112;-75
2021/03/27 11:41:43;;;;;;;8.63;1.85;;;13.70;48.10;;;;;;5071239;28;20061;-75
2021/03/27 11:44:26;;;;;;;6.75;1.90;;;13.40;49.90;;;;;;5065330;28;20033;-75
2021/03/27 11:47:29;;;;;;;5.43;1.40;;;13.50;50.20;;;;;;5066429;28;20029;-75
2021/03/27 11:50:07;;;;;;;6.72;1.67;;;13.90;49.50;;;;;;5055969;28;20558;-75
2021/03/27 11:52:59;;;;;;;7.90;1.40;;;14.30;47.60;;;;;;5072328;28;20032;-75
2021/03/27 11:55:30;;;;;;;4.90;1.40;;;14.40;44.60;;;;;;5069597;28;20033;-76
2021/03/27 11:58:03;;;;;;;6.40;1.50;;;14.10;43.00;;;;;;5071709;28;20021;-75
2021/03/27 12:03:27;;;;;;;5.95;1.38;;;13.50;45.20;;;;;;5063303;28;20020;-75
2021/03/27 12:06:33;;;;;;;7.53;1.30;;;13.60;44.30;;;;;;5066415;28;20028;-75
2021/03/27 12:09:20;;;;;;;3.15;0.82;;;13.80;43.90;;;;;;5051574;28;20492;-75
2021/03/27 12:11:52;;;;;;;6.05;1.38;;;13.90;43.50;;;;;;5055586;28;20051;-75
2021/03/27 12:14:40;;;;;;;5.85;0.98;;;13.80;43.40;;;;;;5056345;28;20021;-75
2021/03/27 12:17:24;;;;;;;11.25;1.70;;;13.90;44.20;;;;;;5056462;28;20469;-79
2021/03/27 12:19:53;;;;;;;6.05;1.25;;;14.10;43.70;;;;;;5061231;28;20072;-79
2021/03/27 12:22:36;;;;;;;5.05;1.15;;;14.30;43.70;;;;;;5060081;28;20025;-79
2021/03/27 12:25:27;;;;;;;8.25;1.80;;;14.20;41.30;;;;;;5069959;28;20075;-80
2021/03/27 12:28:21;;;;;;;4.93;1.63;;;13.90;41.30;;;;;;5067539;28;20024;-79
2021/03/27 12:31:11;;;;;;;6.28;1.70;;;13.60;42.90;;;;;;5073490;28;20041;-79
2021/03/27 12:33:54;;;;;;;6.25;1.38;;;13.40;43.40;;;;;;5055612;28;20025;-79
2021/03/27 12:36:28;;;;;;;6.07;1.20;;;13.20;41.50;;;;;;5062358;28;20091;-79
2021/03/27 12:39:31;;;;;;;8.25;1.17;;;12.80;42.20;;;;;;5054841;28;20105;-79
2021/03/27 12:41:56;;;;;;;6.97;1.25;;;12.60;41.90;;;;;;5053974;28;20064;-79
2021/03/27 12:44:29;;;;;;;4.10;0.80;;;12.30;41.80;;;;;;5054664;28;20501;-79
2021/03/27 12:47:06;;;;;;;3.75;0.90;;;12.10;42.70;;;;;;5073853;28;20067;-78
2021/03/27 12:49:50;;;;;;;7.18;1.20;;;11.90;42.00;;;;;;5068982;28;20429;-76
2021/03/27 12:52:43;;;;;;;6.22;1.25;;;11.60;43.50;;;;;;5068190;28;20075;-77
2021/03/27 12:55:27;;;;;;;6.13;1.33;;;11.40;44.80;;;;;;5071996;28;20477;-77
2021/03/27 12:58:09;;;;;;;11.15;1.70;;;11.50;45.60;;;;;;5073695;28;20032;-77
2021/03/27 13:00:48;;;;;;;4.32;1.33;;;11.80;44.10;;;;;;5073536;28;20032;-77
2021/03/27 13:03:23;;;;;;;;;;;12.00;44.90;;;;;;5072812;28;20112;-77
2021/03/27 13:06:09;;;;;;;6.57;1.00;;;12.30;44.90;;;;;;5066801;28;19908;-78
2021/03/27 13:08:40;;;;;;;8.40;1.02;;;12.60;44.00;;;;;;5071000;28;20490;-77
2021/03/27 13:11:26;;;;;;;5.60;1.17;;;13.00;44.30;;;;;;5062118;28;20381;-76
2021/03/27 13:14:10;;;;;;;3.88;1.30;;;13.30;43.60;;;;;;5071945;28;20432;-77
2021/03/27 13:16:46;;;;;;;5.65;1.30;;;13.70;42.90;;;;;;5071710;28;20385;-77
2021/03/27 13:19:44;;;;;;;5.13;1.33;;;13.90;41.70;;;;;;5070759;28;20031;-77
2021/03/27 13:22:19;;;;;;;3.85;1.02;;;13.90;40.10;;;;;;5072250;28;20415;-77
2021/03/27 13:25:04;;;;;;;6.85;1.25;;;14.00;41.60;;;;;;5067092;28;20504;-77
2021/03/27 13:27:49;;;;;;;7.18;1.50;;;14.40;42.00;;;;;;5064474;28;20730;-76
2021/03/27 13:30:24;;;;;;;6.50;1.77;;;14.60;42.50;;;;;;5063373;28;20090;-78
2021/03/27 13:33:12;;;;;;;4.63;0.98;;;14.70;41.40;;;;;;5075341;28;20028;-77
2021/03/27 13:35:50;;;;;;;6.60;1.25;;;14.80;40.90;;;;;;5093519;28;20038;-78
2021/03/27 13:38:26;;;;;;;3.13;1.17;;;14.70;41.30;;;;;;5090882;28;20036;-77
2021/03/27 13:40:54;;;;;;;6.00;1.50;;;14.70;41.00;;;;;;5093262;28;20036;-77
2021/03/27 13:43:57;;;;;;;4.78;1.15;;;14.60;40.70;;;;;;5074861;28;20069;-78
2021/03/27 13:46:31;;;;;;;7.30;1.33;;;14.30;41.30;;;;;;5091461;28;20111;-75
2021/03/27 13:49:16;;;;;;;7.90;1.83;;;13.90;41.10;;;;;;5078265;28;20039;-78
2021/03/27 13:52:06;;;;;;;8.80;1.58;;;13.70;41.60;;;;;;5097016;28;20488;-77
2021/03/27 13:54:44;;;;;;;5.55;1.45;;;13.50;41.10;;;;;;5095935;28;20115;-77
2021/03/27 13:57:28;;;;;;;6.25;1.50;;;13.60;41.30;;;;;;5078812;28;20222;-77
2021/03/27 14:00:01;;;;;;;4.00;0.98;;;13.50;41.00;;;;;;5078938;28;20393;-78
2021/03/27 14:02:52;;;;;;;7.60;1.42;;;13.50;42.00;;;;;;5079131;28;20024;-78
2021/03/27 14:05:36;;;;;;;7.50;1.20;;;13.40;41.20;;;;;;5096763;28;20024;-75
2021/03/27 14:08:18;;;;;;;7.85;1.60;;;13.40;41.90;;;;;;5095870;28;20441;-75
2021/03/27 14:10:48;;;;;;;4.20;1.20;;;13.30;41.40;;;;;;5060995;28;20028;-75
2021/03/27 14:13:25;;;;;;;7.53;1.38;;;13.00;42.10;;;;;;5096392;28;20461;-75
2021/03/27 14:16:18;;;;;;;8.93;1.48;;;12.80;42.50;;;;;;5076502;28;20396;-75
2021/03/27 14:19:10;;;;;;;5.80;1.70;;;12.60;43.30;;;;;;5110920;28;20035;-75
2021/03/27 14:22:00;;;;;;;8.60;1.73;;;12.50;42.90;;;;;;5096108;28;20030;-75
2021/03/27 14:25:02;;;;;;;9.85;1.45;;;12.30;43.60;;;;;;5096512;28;20024;-75